sensor_id;sensor_type;location;lat;lon;timestamp;pressure;altitude;pressure_sealevel;temperature;humidity
18985;BME280;9626;52.552;13.436;2023-01-28T00:00:45;102119.91;;;-1.33;100.00
18985;BME280;9626;52.552;13.436;2023-01-28T00:03:11;102112.28;;;-1.30;100.00
18985;BME280;9626;52.552;13.436;2023-01-28T00:05:37;102101.16;;;-1.28;100.00
18985;BME280;9626;52.552;13.436;2023-01-28T00:08:03;102108.75;;;-1.14;100.00
18985;BME280;9626;52.552;13.436;2023-01-28T00:10:29;102110.59;;;-1.12;100.00
18985;BME280;9626;52.552;13.436;2023-01-28T00:12:55;102112.72;;;-1.05;100.00
18985;BME280;9626;52.552;13.436;2023-01-28T00:15:21;102107.91;;;-1.13;100.00
18985;BME280;9626;52.552;13.436;2023-01-28T00:17:50;102108.91;;;-1.11;100.00
18985;BME280;9626;52.552;13.436;2023-01-28T00:20:17;102115.31;;;-1.05;100.00
18985;BME280;9626;52.552;13.436;2023-01-28T00:22:49;102118.88;;;-1.03;100.00
18985;BME280;9626;52.552;13.436;2023-01-28T00:25:15;102115.97;;;-1.09;100.00
18985;BME280;9626;52.552;13.436;2023-01-28T00:27:41;102121.84;;;-1.13;100.00
18985;BME280;9626;52.552;13.436;2023-01-28T00:30:08;102125.56;;;-1.08;100.00
18985;BME280;9626;52.552;13.436;2023-01-28T00:32:34;102129.78;;;-1.10;100.00
18985;BME280;9626;52.552;13.436;2023-01-28T00:35:00;102126.03;;;-1.15;100.00
18985;BME280;9626;52.552;13.436;2023-01-28T00:37:26;102126.84;;;-1.16;100.00
18985;BME280;9626;52.552;13.436;2023-01-28T00:39:52;102125.41;;;-1.27;100.00
18985;BME280;9626;52.552;13.436;2023-01-28T00:42:18;102122.19;;;-1.40;100.00
18985;BME280;9626;52.552;13.436;2023-01-28T00:44:44;102121.88;;;-1.46;100.00
18985;BME280;9626;52.552;13.436;2023-01-28T00:47:10;102116.19;;;-1.55;100.00
18985;BME280;9626;52.552;13.436;2023-01-28T00:49:36;102116.66;;;-1.62;100.00
18985;BME280;9626;52.552;13.436;2023-01-28T00:52:03;102121.06;;;-1.61;100.00
18985;BME280;9626;52.552;13.436;2023-01-28T00:54:29;102132.91;;;-1.66;100.00
18985;BME280;9626;52.552;13.436;2023-01-28T00:56:55;102125.81;;;-1.85;100.00
18985;BME280;9626;52.552;13.436;2023-01-28T00:59:21;102138.41;;;-1.93;100.00
18985;BME280;9626;52.552;13.436;2023-01-28T01:01:47;102132.22;;;-1.95;100.00
18985;BME280;9626;52.552;13.436;2023-01-28T01:04:13;102138.41;;;-1.93;100.00
18985;BME280;9626;52.552;13.436;2023-01-28T01:06:51;102131.91;;;-2.01;100.00
18985;BME280;9626;52.552;13.436;2023-01-28T01:09:17;102137.38;;;-2.12;100.00
18985;BME280;9626;52.552;13.436;2023-01-28T01:11:43;102136.06;;;-2.20;100.00
18985;BME280;9626;52.552;13.436;2023-01-28T01:14:09;102129.72;;;-2.25;100.00
18985;BME280;9626;52.552;13.436;2023-01-28T01:16:35;102130.13;;;-2.34;100.00
18985;BME280;9626;52.552;13.436;2023-01-28T01:19:03;102129.59;;;-2.43;100.00
18985;BME280;9626;52.552;13.436;2023-01-28T01:21:30;102134.88;;;-2.42;100.00
18985;BME280;9626;52.552;13.436;2023-01-28T01:23:57;102135.75;;;-2.26;100.00
18985;BME280;9626;52.552;13.436;2023-01-28T01:26:23;102137.78;;;-2.21;100.00
18985;BME280;9626;52.552;13.436;2023-01-28T01:28:52;102136.25;;;-2.00;100.00
18985;BME280;9626;52.552;13.436;2023-01-28T01:31:19;102135.97;;;-1.90;100.00
18985;BME280;9626;52.552;13.436;2023-01-28T01:33:47;102129.41;;;-1.83;100.00
18985;BME280;9626;52.552;13.436;2023-01-28T01:36:15;102132.09;;;-1.82;100.00
18985;BME280;9626;52.552;13.436;2023-01-28T01:38:42;102132.44;;;-1.76;100.00
18985;BME280;9626;52.552;13.436;2023-01-28T01:41:08;102130.63;;;-1.77;100.00
18985;BME280;9626;52.552;13.436;2023-01-28T01:43:54;102136.00;;;-1.74;100.00
18985;BME280;9626;52.552;13.436;2023-01-28T01:46:43;102134.19;;;-1.75;100.00
18985;BME280;9626;52.552;13.436;2023-01-28T01:49:14;102140.88;;;-1.63;100.00
18985;BME280;9626;52.552;13.436;2023-01-28T01:51:43;102145.72;;;-1.53;100.00
18985;BME280;9626;52.552;13.436;2023-01-28T01:54:12;102146.06;;;-1.47;100.00
18985;BME280;9626;52.552;13.436;2023-01-28T01:56:42;102148.59;;;-1.48;100.00
18985;BME280;9626;52.552;13.436;2023-01-28T01:59:14;102150.34;;;-1.47;100.00
18985;BME280;9626;52.552;13.436;2023-01-28T02:01:43;102148.03;;;-1.43;100.00
18985;BME280;9626;52.552;13.436;2023-01-28T02:04:25;102149.47;;;-1.48;100.00
18985;BME280;9626;52.552;13.436;2023-01-28T02:06:54;102152.88;;;-1.49;100.00
18985;BME280;9626;52.552;13.436;2023-01-28T02:09:39;102150.47;;;-1.46;100.00
18985;BME280;9626;52.552;13.436;2023-01-28T02:12:10;102145.66;;;-1.38;100.00
18985;BME280;9626;52.552;13.436;2023-01-28T02:14:44;102142.97;;;-1.40;100.00
18985;BME280;9626;52.552;13.436;2023-01-28T02:17:11;102143.84;;;-1.39;100.00
18985;BME280;9626;52.552;13.436;2023-01-28T02:19:42;102140.78;;;-1.32;100.00
18985;BME280;9626;52.552;13.436;2023-01-28T02:24:50;102137.69;;;-1.25;100.00
18985;BME280;9626;52.552;13.436;2023-01-28T02:30:15;102143.38;;;-1.32;100.00
18985;BME280;9626;52.552;13.436;2023-01-28T02:32:56;102143.13;;;-1.37;100.00
18985;BME280;9626;52.552;13.436;2023-01-28T02:37:54;102142.16;;;-1.39;100.00
18985;BME280;9626;52.552;13.436;2023-01-28T02:40:34;102147.53;;;-1.36;100.00
18985;BME280;9626;52.552;13.436;2023-01-28T02:45:56;102154.41;;;-1.20;100.00
18985;BME280;9626;52.552;13.436;2023-01-28T02:48:40;102153.84;;;-1.14;100.00
18985;BME280;9626;52.552;13.436;2023-01-28T02:51:26;102149.22;;;-1.20;100.00
18985;BME280;9626;52.552;13.436;2023-01-28T02:54:11;102153.13;;;-1.28;100.00
18985;BME280;9626;52.552;13.436;2023-01-28T02:57:07;102151.66;;;-1.23;100.00
18985;BME280;9626;52.552;13.436;2023-01-28T02:59:41;102152.22;;;-1.28;100.00
18985;BME280;9626;52.552;13.436;2023-01-28T03:02:27;102148.50;;;-1.33;100.00
18985;BME280;9626;52.552;13.436;2023-01-28T03:07:50;102147.78;;;-1.31;100.00
18985;BME280;9626;52.552;13.436;2023-01-28T03:10:36;102150.47;;;-1.29;100.00
18985;BME280;9626;52.552;13.436;2023-01-28T03:13:13;102154.34;;;-1.21;100.00
18985;BME280;9626;52.552;13.436;2023-01-28T03:15:57;102155.94;;;-1.23;100.00
18985;BME280;9626;52.552;13.436;2023-01-28T03:18:45;102153.28;;;-1.25;100.00
18985;BME280;9626;52.552;13.436;2023-01-28T03:21:38;102154.16;;;-1.24;100.00
18985;BME280;9626;52.552;13.436;2023-01-28T03:24:29;102156.94;;;-1.21;100.00
18985;BME280;9626;52.552;13.436;2023-01-28T03:27:30;102160.28;;;-1.24;100.00
18985;BME280;9626;52.552;13.436;2023-01-28T03:30:27;102151.34;;;-1.29;100.00
18985;BME280;9626;52.552;13.436;2023-01-28T03:33:14;102151.19;;;-1.32;100.00
18985;BME280;9626;52.552;13.436;2023-01-28T03:36:00;102152.03;;;-1.15;100.00
18985;BME280;9626;52.552;13.436;2023-01-28T03:38:45;102155.13;;;-1.06;100.00
18985;BME280;9626;52.552;13.436;2023-01-28T03:41:20;102151.22;;;-0.97;100.00
18985;BME280;9626;52.552;13.436;2023-01-28T03:43:47;102155.00;;;-0.91;100.00
18985;BME280;9626;52.552;13.436;2023-01-28T03:46:14;102152.34;;;-0.92;100.00
18985;BME280;9626;52.552;13.436;2023-01-28T03:48:40;102153.97;;;-0.94;100.00
18985;BME280;9626;52.552;13.436;2023-01-28T03:51:06;102147.00;;;-0.95;100.00
18985;BME280;9626;52.552;13.436;2023-01-28T03:53:32;102154.03;;;-0.93;100.00
18985;BME280;9626;52.552;13.436;2023-01-28T03:55:58;102150.69;;;-0.90;100.00
18985;BME280;9626;52.552;13.436;2023-01-28T03:58:25;102147.94;;;-0.93;100.00
18985;BME280;9626;52.552;13.436;2023-01-28T04:01:11;102144.03;;;-0.85;100.00
18985;BME280;9626;52.552;13.436;2023-01-28T04:03:38;102149.97;;;-0.88;100.00
18985;BME280;9626;52.552;13.436;2023-01-28T04:06:07;102147.28;;;-0.89;100.00
18985;BME280;9626;52.552;13.436;2023-01-28T04:08:34;102145.06;;;-0.99;100.00
18985;BME280;9626;52.552;13.436;2023-01-28T04:11:00;102141.47;;;-1.02;100.00
18985;BME280;9626;52.552;13.436;2023-01-28T04:13:41;102150.94;;;-0.86;100.00
18985;BME280;9626;52.552;13.436;2023-01-28T04:16:07;102150.75;;;-0.72;100.00
18985;BME280;9626;52.552;13.436;2023-01-28T04:18:34;102140.56;;;-0.68;100.00
18985;BME280;9626;52.552;13.436;2023-01-28T04:21:00;102136.03;;;-0.72;100.00
18985;BME280;9626;52.552;13.436;2023-01-28T04:23:26;102149.38;;;-0.82;100.00
18985;BME280;9626;52.552;13.436;2023-01-28T04:25:54;102146.88;;;-0.80;100.00
18985;BME280;9626;52.552;13.436;2023-01-28T04:28:20;102140.28;;;-0.90;100.00
18985;BME280;9626;52.552;13.436;2023-01-28T04:30:47;102149.06;;;-0.88;100.00
18985;BME280;9626;52.552;13.436;2023-01-28T04:33:13;102147.44;;;-0.86;100.00
18985;BME280;9626;52.552;13.436;2023-01-28T04:35:39;102154.34;;;-0.87;100.00
18985;BME280;9626;52.552;13.436;2023-01-28T04:38:05;102144.16;;;-0.82;100.00
18985;BME280;9626;52.552;13.436;2023-01-28T04:40:31;102148.34;;;-0.86;100.00
18985;BME280;9626;52.552;13.436;2023-01-28T04:42:57;102155.47;;;-0.81;100.00
18985;BME280;9626;52.552;13.436;2023-01-28T04:45:23;102146.09;;;-0.78;100.00
18985;BME280;9626;52.552;13.436;2023-01-28T04:47:50;102147.38;;;-0.70;100.00
18985;BME280;9626;52.552;13.436;2023-01-28T04:50:16;102145.91;;;-0.64;100.00
18985;BME280;9626;52.552;13.436;2023-01-28T04:52:42;102133.81;;;-0.64;100.00
18985;BME280;9626;52.552;13.436;2023-01-28T04:55:09;102142.41;;;-0.65;100.00
18985;BME280;9626;52.552;13.436;2023-01-28T04:57:35;102139.00;;;-0.64;100.00
18985;BME280;9626;52.552;13.436;2023-01-28T05:00:02;102134.75;;;-0.62;100.00
18985;BME280;9626;52.552;13.436;2023-01-28T05:02:28;102145.41;;;-0.57;100.00
18985;BME280;9626;52.552;13.436;2023-01-28T05:04:54;102142.94;;;-0.54;100.00
18985;BME280;9626;52.552;13.436;2023-01-28T05:07:21;102151.50;;;-0.57;100.00
18985;BME280;9626;52.552;13.436;2023-01-28T05:09:47;102146.88;;;-0.62;100.00
18985;BME280;9626;52.552;13.436;2023-01-28T05:12:13;102150.63;;;-0.57;100.00
18985;BME280;9626;52.552;13.436;2023-01-28T05:14:39;102150.63;;;-0.57;100.00
18985;BME280;9626;52.552;13.436;2023-01-28T05:17:05;102161.03;;;-0.57;100.00
18985;BME280;9626;52.552;13.436;2023-01-28T05:19:32;102167.72;;;-0.62;100.00
18985;BME280;9626;52.552;13.436;2023-01-28T05:21:58;102176.63;;;-0.57;100.00
18985;BME280;9626;52.552;13.436;2023-01-28T05:24:24;102164.44;;;-0.58;100.00
18985;BME280;9626;52.552;13.436;2023-01-28T05:26:50;102158.72;;;-0.51;100.00
18985;BME280;9626;52.552;13.436;2023-01-28T05:29:16;102173.66;;;-0.47;100.00
18985;BME280;9626;52.552;13.436;2023-01-28T05:31:42;102170.09;;;-0.49;100.00
18985;BME280;9626;52.552;13.436;2023-01-28T05:34:08;102171.06;;;-0.47;100.00
18985;BME280;9626;52.552;13.436;2023-01-28T05:36:34;102171.13;;;-0.45;100.00
18985;BME280;9626;52.552;13.436;2023-01-28T05:39:01;102174.47;;;-0.48;100.00
18985;BME280;9626;52.552;13.436;2023-01-28T05:41:27;102165.72;;;-0.50;100.00
18985;BME280;9626;52.552;13.436;2023-01-28T05:43:53;102163.03;;;-0.52;100.00
18985;BME280;9626;52.552;13.436;2023-01-28T05:46:19;102162.13;;;-0.52;100.00
18985;BME280;9626;52.552;13.436;2023-01-28T05:48:45;102165.78;;;-0.48;100.00
18985;BME280;9626;52.552;13.436;2023-01-28T05:51:11;102163.38;;;-0.44;100.00
18985;BME280;9626;52.552;13.436;2023-01-28T05:53:37;102169.66;;;-0.40;100.00
18985;BME280;9626;52.552;13.436;2023-01-28T05:56:03;102167.25;;;-0.36;100.00
18985;BME280;9626;52.552;13.436;2023-01-28T05:58:29;102161.97;;;-0.37;100.00
18985;BME280;9626;52.552;13.436;2023-01-28T06:00:56;102172.25;;;-0.40;100.00
18985;BME280;9626;52.552;13.436;2023-01-28T06:03:23;102175.31;;;-0.49;100.00
18985;BME280;9626;52.552;13.436;2023-01-28T06:05:49;102163.97;;;-0.49;100.00
18985;BME280;9626;52.552;13.436;2023-01-28T06:08:15;102163.25;;;-0.47;100.00
18985;BME280;9626;52.552;13.436;2023-01-28T06:10:41;102162.44;;;-0.46;100.00
18985;BME280;9626;52.552;13.436;2023-01-28T06:13:07;102173.00;;;-0.43;100.00
18985;BME280;9626;52.552;13.436;2023-01-28T06:15:33;102172.25;;;-0.40;100.00
18985;BME280;9626;52.552;13.436;2023-01-28T06:17:59;102173.06;;;-0.41;100.00
18985;BME280;9626;52.552;13.436;2023-01-28T06:20:25;102168.59;;;-0.44;100.00
18985;BME280;9626;52.552;13.436;2023-01-28T06:22:51;102175.59;;;-0.43;100.00
18985;BME280;9626;52.552;13.436;2023-01-28T06:25:18;102182.72;;;-0.39;100.00
18985;BME280;9626;52.552;13.436;2023-01-28T06:27:44;102181.25;;;-0.33;100.00
18985;BME280;9626;52.552;13.436;2023-01-28T06:30:11;102179.69;;;-0.30;100.00
18985;BME280;9626;52.552;13.436;2023-01-28T06:32:37;102171.13;;;-0.27;100.00
18985;BME280;9626;52.552;13.436;2023-01-28T06:35:03;102177.97;;;-0.29;100.00
18985;BME280;9626;52.552;13.436;2023-01-28T06:37:30;102182.06;;;-0.35;100.00
18985;BME280;9626;52.552;13.436;2023-01-28T06:39:56;102182.81;;;-0.37;100.00
18985;BME280;9626;52.552;13.436;2023-01-28T06:42:22;102180.66;;;-0.28;100.00
18985;BME280;9626;52.552;13.436;2023-01-28T06:44:48;102186.25;;;-0.20;100.00
18985;BME280;9626;52.552;13.436;2023-01-28T06:47:14;102186.44;;;-0.15;100.00
18985;BME280;9626;52.552;13.436;2023-01-28T06:49:40;102191.81;;;-0.12;100.00
18985;BME280;9626;52.552;13.436;2023-01-28T06:52:06;102194.50;;;-0.11;100.00
18985;BME280;9626;52.552;13.436;2023-01-28T06:54:32;102191.44;;;-0.20;100.00
18985;BME280;9626;52.552;13.436;2023-01-28T06:56:58;102185.94;;;-0.26;100.00
18985;BME280;9626;52.552;13.436;2023-01-28T06:59:24;102192.63;;;-0.31;100.00
18985;BME280;9626;52.552;13.436;2023-01-28T07:01:50;102186.38;;;-0.35;100.00
18985;BME280;9626;52.552;13.436;2023-01-28T07:04:16;102188.59;;;-0.43;100.00
18985;BME280;9626;52.552;13.436;2023-01-28T07:06:42;102192.34;;;-0.38;100.00
18985;BME280;9626;52.552;13.436;2023-01-28T07:09:08;102195.81;;;-0.37;100.00
18985;BME280;9626;52.552;13.436;2023-01-28T07:11:34;102197.00;;;-0.30;100.00
18985;BME280;9626;52.552;13.436;2023-01-28T07:14:01;102195.84;;;-0.19;100.00
18985;BME280;9626;52.552;13.436;2023-01-28T07:16:27;102201.94;;;-0.19;100.00
18985;BME280;9626;52.552;13.436;2023-01-28T07:18:53;102210.81;;;-0.15;100.00
18985;BME280;9626;52.552;13.436;2023-01-28T07:21:19;102201.06;;;-0.19;100.00
18985;BME280;9626;52.552;13.436;2023-01-28T07:23:45;102202.38;;;-0.27;100.00
18985;BME280;9626;52.552;13.436;2023-01-28T07:26:11;102200.44;;;-0.31;100.00
18985;BME280;9626;52.552;13.436;2023-01-28T07:28:37;102196.88;;;-0.33;100.00
18985;BME280;9626;52.552;13.436;2023-01-28T07:31:03;102197.75;;;-0.33;100.00
18985;BME280;9626;52.552;13.436;2023-01-28T07:33:29;102196.06;;;-0.32;100.00
18985;BME280;9626;52.552;13.436;2023-01-28T07:35:55;102197.94;;;-0.30;100.00
18985;BME280;9626;52.552;13.436;2023-01-28T07:38:21;102201.28;;;-0.32;100.00
18985;BME280;9626;52.552;13.436;2023-01-28T07:40:47;102196.94;;;-0.32;100.00
18985;BME280;9626;52.552;13.436;2023-01-28T07:43:13;102192.94;;;-0.25;100.00
18985;BME280;9626;52.552;13.436;2023-01-28T07:45:39;102202.53;;;-0.24;100.00
18985;BME280;9626;52.552;13.436;2023-01-28T07:48:07;102204.28;;;-0.23;100.00
18985;BME280;9626;52.552;13.436;2023-01-28T07:50:36;102203.13;;;-0.12;100.00
18985;BME280;9626;52.552;13.436;2023-01-28T07:53:04;102200.88;;;-0.04;100.00
18985;BME280;9626;52.552;13.436;2023-01-28T07:55:31;102203.56;;;-0.03;100.00
18985;BME280;9626;52.552;13.436;2023-01-28T07:57:58;102203.41;;;-0.06;100.00
18985;BME280;9626;52.552;13.436;2023-01-28T08:00:28;102202.53;;;-0.06;100.00
18985;BME280;9626;52.552;13.436;2023-01-28T08:02:59;102193.28;;;0.01;100.00
18985;BME280;9626;52.552;13.436;2023-01-28T08:05:30;102200.44;;;0.05;100.00
18985;BME280;9626;52.552;13.436;2023-01-28T08:08:01;102205.03;;;0.10;100.00
18985;BME280;9626;52.552;13.436;2023-01-28T08:10:27;102216.13;;;0.06;100.00
18985;BME280;9626;52.552;13.436;2023-01-28T08:12:55;102210.03;;;0.06;100.00
18985;BME280;9626;52.552;13.436;2023-01-28T08:15:23;102218.00;;;0.09;100.00
18985;BME280;9626;52.552;13.436;2023-01-28T08:17:50;102225.94;;;0.12;100.00
18985;BME280;9626;52.552;13.436;2023-01-28T08:20:16;102215.84;;;0.18;100.00
18985;BME280;9626;52.552;13.436;2023-01-28T08:22:42;102220.38;;;0.22;100.00
18985;BME280;9626;52.552;13.436;2023-01-28T08:25:08;102220.50;;;0.25;100.00
18985;BME280;9626;52.552;13.436;2023-01-28T08:27:34;102226.09;;;0.33;100.00
18985;BME280;9626;52.552;13.436;2023-01-28T08:30:00;102228.75;;;0.35;100.00
18985;BME280;9626;52.552;13.436;2023-01-28T08:32:28;102226.44;;;0.41;100.00
18985;BME280;9626;52.552;13.436;2023-01-28T08:34:54;102234.47;;;0.45;100.00
18985;BME280;9626;52.552;13.436;2023-01-28T08:37:20;102247.56;;;0.47;100.00
18985;BME280;9626;52.552;13.436;2023-01-28T08:39:46;102244.16;;;0.48;100.00
18985;BME280;9626;52.552;13.436;2023-01-28T08:42:13;102239.97;;;0.52;100.00
18985;BME280;9626;52.552;13.436;2023-01-28T08:44:39;102243.69;;;0.57;100.00
18985;BME280;9626;52.552;13.436;2023-01-28T08:47:05;102243.53;;;0.54;100.00
18985;BME280;9626;52.552;13.436;2023-01-28T08:49:31;102234.28;;;0.60;100.00
18985;BME280;9626;52.552;13.436;2023-01-28T08:51:57;102233.53;;;0.63;100.00
18985;BME280;9626;52.552;13.436;2023-01-28T08:54:23;102239.69;;;0.65;100.00
18985;BME280;9626;52.552;13.436;2023-01-28T08:56:49;102254.31;;;0.61;100.00
18985;BME280;9626;52.552;13.436;2023-01-28T08:59:16;102250.00;;;0.62;100.00
18985;BME280;9626;52.552;13.436;2023-01-28T09:01:43;102246.84;;;0.69;100.00
18985;BME280;9626;52.552;13.436;2023-01-28T09:04:09;102248.84;;;0.75;100.00
18985;BME280;9626;52.552;13.436;2023-01-28T09:06:35;102250.75;;;0.79;100.00
18985;BME280;9626;52.552;13.436;2023-01-28T09:09:01;102254.06;;;0.75;100.00
18985;BME280;9626;52.552;13.436;2023-01-28T09:11:28;102260.19;;;0.75;100.00
18985;BME280;9626;52.552;13.436;2023-01-28T09:13:56;102259.25;;;0.75;100.00
18985;BME280;9626;52.552;13.436;2023-01-28T09:16:22;102266.28;;;0.76;100.00
18985;BME280;9626;52.552;13.436;2023-01-28T09:18:48;102268.81;;;0.74;100.00
18985;BME280;9626;52.552;13.436;2023-01-28T09:21:16;102280.00;;;0.72;100.00
18985;BME280;9626;52.552;13.436;2023-01-28T09:23:42;102276.44;;;0.70;100.00
18985;BME280;9626;52.552;13.436;2023-01-28T09:26:08;102268.63;;;0.70;100.00
18985;BME280;9626;52.552;13.436;2023-01-28T09:28:34;102280.97;;;0.74;100.00
18985;BME280;9626;52.552;13.436;2023-01-28T09:31:09;102272.53;;;0.79;100.00
18985;BME280;9626;52.552;13.436;2023-01-28T09:33:37;102273.03;;;0.90;100.00
18985;BME280;9626;52.552;13.436;2023-01-28T09:36:04;102288.50;;;0.87;100.00
18985;BME280;9626;52.552;13.436;2023-01-28T09:38:31;102285.03;;;0.87;100.00
18985;BME280;9626;52.552;13.436;2023-01-28T09:40:57;102283.41;;;0.89;100.00
18985;BME280;9626;52.552;13.436;2023-01-28T09:45:59;102281.41;;;1.03;100.00
18985;BME280;9626;52.552;13.436;2023-01-28T09:48:31;102285.94;;;1.07;100.00
18985;BME280;9626;52.552;13.436;2023-01-28T09:51:00;102284.88;;;1.03;100.00
18985;BME280;9626;52.552;13.436;2023-01-28T09:53:31;102277.13;;;1.05;100.00
18985;BME280;9626;52.552;13.436;2023-01-28T09:56:08;102290.47;;;1.11;100.00
18985;BME280;9626;52.552;13.436;2023-01-28T09:58:36;102295.69;;;1.11;97.60
18985;BME280;9626;52.552;13.436;2023-01-28T10:01:35;102294.94;;;1.13;96.94
18985;BME280;9626;52.552;13.436;2023-01-28T10:06:57;102287.91;;;1.12;98.45
18985;BME280;9626;52.552;13.436;2023-01-28T10:17:56;102269.09;;;1.20;96.04
18985;BME280;9626;52.552;13.436;2023-01-28T10:20:33;102273.44;;;1.19;95.17
18985;BME280;9626;52.552;13.436;2023-01-28T10:23:25;102277.59;;;1.15;96.27
18985;BME280;9626;52.552;13.436;2023-01-28T10:25:54;102281.25;;;1.19;95.71
18985;BME280;9626;52.552;13.436;2023-01-28T10:28:25;102269.16;;;1.21;93.95
18985;BME280;9626;52.552;13.436;2023-01-28T10:30:53;102277.13;;;1.24;92.03
18985;BME280;9626;52.552;13.436;2023-01-28T10:33:23;102273.84;;;1.28;90.19
18985;BME280;9626;52.552;13.436;2023-01-28T10:35:54;102268.06;;;1.35;90.31
18985;BME280;9626;52.552;13.436;2023-01-28T10:38:22;102265.56;;;1.39;91.46
18985;BME280;9626;52.552;13.436;2023-01-28T10:40:50;102262.00;;;1.37;88.54
18985;BME280;9626;52.552;13.436;2023-01-28T10:43:18;102271.59;;;1.38;86.46
18985;BME280;9626;52.552;13.436;2023-01-28T10:51:31;102268.94;;;1.36;83.26
18985;BME280;9626;52.552;13.436;2023-01-28T10:53:57;102268.88;;;1.34;84.90
18985;BME280;9626;52.552;13.436;2023-01-28T10:56:26;102258.38;;;1.33;84.57
18985;BME280;9626;52.552;13.436;2023-01-28T10:59:01;102264.47;;;1.33;85.05
18985;BME280;9626;52.552;13.436;2023-01-28T11:02:03;102275.00;;;1.35;84.89
18985;BME280;9626;52.552;13.436;2023-01-28T11:04:34;102268.06;;;1.35;83.36
18985;BME280;9626;52.552;13.436;2023-01-28T11:07:04;102264.75;;;1.40;85.04
18985;BME280;9626;52.552;13.436;2023-01-28T11:09:31;102263.94;;;1.41;85.36
18985;BME280;9626;52.552;13.436;2023-01-28T11:11:58;102264.06;;;1.44;84.95
18985;BME280;9626;52.552;13.436;2023-01-28T11:14:35;102260.47;;;1.42;83.32
18985;BME280;9626;52.552;13.436;2023-01-28T11:17:04;102264.75;;;1.40;82.71
18985;BME280;9626;52.552;13.436;2023-01-28T11:19:41;102265.56;;;1.39;82.77
18985;BME280;9626;52.552;13.436;2023-01-28T11:22:30;102256.03;;;1.39;83.62
18985;BME280;9626;52.552;13.436;2023-01-28T11:24:59;102258.84;;;1.44;84.94
18985;BME280;9626;52.552;13.436;2023-01-28T11:27:29;102253.72;;;1.47;84.60
18985;BME280;9626;52.552;13.436;2023-01-28T11:29:57;102246.03;;;1.50;85.74
18985;BME280;9626;52.552;13.436;2023-01-28T11:32:28;102244.25;;;1.49;84.20
18985;BME280;9626;52.552;13.436;2023-01-28T11:34:56;102246.72;;;1.46;83.47
18985;BME280;9626;52.552;13.436;2023-01-28T11:37:24;102254.31;;;1.40;83.48
18985;BME280;9626;52.552;13.436;2023-01-28T11:40:16;102249.97;;;1.40;83.79
18985;BME280;9626;52.552;13.436;2023-01-28T11:42:46;102235.28;;;1.42;83.57
18985;BME280;9626;52.552;13.436;2023-01-28T11:45:20;102227.38;;;1.41;82.75
18985;BME280;9626;52.552;13.436;2023-01-28T11:51:00;102235.34;;;1.44;84.61
18985;BME280;9626;52.552;13.436;2023-01-28T12:01:15;102227.38;;;1.41;85.22
18985;BME280;9626;52.552;13.436;2023-01-28T12:04:20;102217.06;;;1.44;85.02
18985;BME280;9626;52.552;13.436;2023-01-28T12:07:10;102224.06;;;1.45;84.42
18985;BME280;9626;52.552;13.436;2023-01-28T12:15:25;102214.03;;;1.54;89.55
18985;BME280;9626;52.552;13.436;2023-01-28T12:18:21;102214.63;;;1.48;91.69
18985;BME280;9626;52.552;13.436;2023-01-28T12:21:05;102215.16;;;1.40;92.90
18985;BME280;9626;52.552;13.436;2023-01-28T12:24:12;102217.41;;;1.32;94.32
18985;BME280;9626;52.552;13.436;2023-01-28T12:26:57;102213.97;;;1.12;100.00
18985;BME280;9626;52.552;13.436;2023-01-28T12:32:19;102217.81;;;1.00;100.00
18985;BME280;9626;52.552;13.436;2023-01-28T12:35:02;102218.78;;;1.03;100.00
18985;BME280;9626;52.552;13.436;2023-01-28T12:43:04;102208.88;;;0.95;100.00
18985;BME280;9626;52.552;13.436;2023-01-28T12:46:05;102203.81;;;0.98;100.00
18985;BME280;9626;52.552;13.436;2023-01-28T12:48:41;102197.56;;;0.95;100.00
18985;BME280;9626;52.552;13.436;2023-01-28T12:51:33;102198.66;;;1.00;100.00
18985;BME280;9626;52.552;13.436;2023-01-28T12:54:11;102198.59;;;0.98;100.00
18985;BME280;9626;52.552;13.436;2023-01-28T12:56:47;102192.53;;;0.99;100.00
18985;BME280;9626;52.552;13.436;2023-01-28T12:59:26;102202.97;;;0.99;100.00
18985;BME280;9626;52.552;13.436;2023-01-28T13:04:56;102194.09;;;0.94;100.00
18985;BME280;9626;52.552;13.436;2023-01-28T13:07:40;102188.00;;;0.95;100.00
18985;BME280;9626;52.552;13.436;2023-01-28T13:10:11;102176.88;;;0.99;100.00
18985;BME280;9626;52.552;13.436;2023-01-28T13:12:41;102170.09;;;1.03;100.00
18985;BME280;9626;52.552;13.436;2023-01-28T13:15:12;102171.66;;;0.99;100.00
18985;BME280;9626;52.552;13.436;2023-01-28T13:17:59;102163.78;;;0.98;100.00
18985;BME280;9626;52.552;13.436;2023-01-28T13:20:49;102156.41;;;1.09;100.00
18985;BME280;9626;52.552;13.436;2023-01-28T13:25:56;102166.44;;;0.99;100.00
18985;BME280;9626;52.552;13.436;2023-01-28T13:28:33;102168.41;;;0.84;100.00
18985;BME280;9626;52.552;13.436;2023-01-28T13:31:08;102157.09;;;0.83;100.00
18985;BME280;9626;52.552;13.436;2023-01-28T13:33:37;102161.34;;;0.81;100.00
18985;BME280;9626;52.552;13.436;2023-01-28T13:38:33;102158.84;;;0.84;100.00
18985;BME280;9626;52.552;13.436;2023-01-28T13:41:00;102151.81;;;0.82;100.00
18985;BME280;9626;52.552;13.436;2023-01-28T13:46:01;102158.53;;;0.77;100.00
18985;BME280;9626;52.552;13.436;2023-01-28T13:51:29;102153.84;;;0.89;100.00
18985;BME280;9626;52.552;13.436;2023-01-28T13:54:02;102159.47;;;0.98;100.00
18985;BME280;9626;52.552;13.436;2023-01-28T13:59:41;102149.41;;;1.08;100.00
18985;BME280;9626;52.552;13.436;2023-01-28T14:07:51;102150.97;;;1.24;98.59
18985;BME280;9626;52.552;13.436;2023-01-28T14:16:01;102143.06;;;1.22;93.37
18985;BME280;9626;52.552;13.436;2023-01-28T14:18:36;102136.81;;;1.18;90.94
18985;BME280;9626;52.552;13.436;2023-01-28T14:21:16;102130.50;;;0.92;91.37
18985;BME280;9626;52.552;13.436;2023-01-28T14:23:54;102127.56;;;0.84;92.87
18985;BME280;9626;52.552;13.436;2023-01-28T14:26:40;102127.25;;;0.77;93.03
18985;BME280;9626;52.552;13.436;2023-01-28T14:32:14;102133.41;;;0.79;94.86